Time;durP1;ratioP1;P1;durP2;ratioP2;P2;SDS_P1;SDS_P2;PMS_P1;PMS_P2;Temp;Humidity;BMP_temperature;BMP_pressure;BME280_temperature;BME280_humidity;BME280_pressure;Samples;Min_cycle;Max_cycle;Signal;HPM_P1;HPM_P2
2022/03/10 00:00:58;;;;;;;19.08;8.70;;;3.60;80.90;;;;;;5073309;28;20053;-68
2022/03/10 00:03:24;;;;;;;14.40;9.75;;;3.60;82.00;;;;;;5073732;28;20161;-68
2022/03/10 00:05:51;;;;;;;14.63;8.95;;;3.60;82.60;;;;;;5074509;28;20484;-69
2022/03/10 00:08:18;;;;;;;14.73;9.60;;;3.50;82.20;;;;;;5074106;28;20080;-68
2022/03/10 00:10:45;;;;;;;15.10;9.20;;;3.50;83.20;;;;;;5073717;28;20136;-68
2022/03/10 00:13:13;;;;;;;17.40;9.57;;;3.50;83.30;;;;;;5073117;28;20526;-68
2022/03/10 00:15:40;;;;;;;16.92;10.18;;;3.40;83.20;;;;;;5074901;28;20080;-69
2022/03/10 00:18:07;;;;;;;16.38;9.80;;;3.40;83.60;;;;;;5074085;28;20056;-70
2022/03/10 00:20:33;;;;;;;14.50;9.65;;;3.40;83.90;;;;;;5073584;28;20122;-69
2022/03/10 00:23:00;;;;;;;16.13;9.15;;;3.30;84.20;;;;;;5075256;28;20045;-69
2022/03/10 00:25:27;;;;;;;18.17;9.23;;;3.30;85.20;;;;;;5073796;28;20064;-67
2022/03/10 00:27:54;;;;;;;18.08;9.10;;;3.30;85.10;;;;;;5073107;28;20102;-69
2022/03/10 00:30:22;;;;;;;14.82;9.88;;;3.20;85.60;;;;;;5073209;28;20041;-68
2022/03/10 00:32:50;;;;;;;15.75;9.68;;;3.20;86.50;;;;;;5074206;28;20361;-68
2022/03/10 00:35:19;;;;;;;15.18;8.68;;;3.20;86.80;;;;;;5072725;28;20052;-69
2022/03/10 00:37:46;;;;;;;16.85;9.27;;;3.10;87.70;;;;;;5074028;28;20053;-69
2022/03/10 00:40:14;;;;;;;18.33;10.15;;;3.10;87.30;;;;;;5074691;28;20052;-69
2022/03/10 00:42:42;;;;;;;15.55;9.48;;;3.10;88.70;;;;;;5072965;28;20044;-69
2022/03/10 00:45:09;;;;;;;14.73;9.50;;;3.10;89.60;;;;;;5072852;28;20056;-69
2022/03/10 00:47:38;;;;;;;15.75;9.20;;;3.10;89.80;;;;;;5073179;28;20102;-69
2022/03/10 00:50:07;;;;;;;14.25;9.75;;;3.00;89.10;;;;;;5074085;28;20408;-69
2022/03/10 00:52:34;;;;;;;18.00;10.07;;;3.10;89.50;;;;;;5073595;28;20044;-68
2022/03/10 00:55:01;;;;;;;15.43;9.10;;;3.10;88.90;;;;;;5072663;28;20442;-68
2022/03/10 00:57:27;;;;;;;15.80;9.20;;;3.00;89.50;;;;;;5072945;28;20095;-68
2022/03/10 00:59:54;;;;;;;16.85;10.05;;;3.00;89.50;;;;;;5074051;28;20480;-69
2022/03/10 01:02:21;;;;;;;14.75;9.50;;;3.00;90.30;;;;;;5073501;28;20105;-68
2022/03/10 01:04:49;;;;;;;19.98;9.50;;;3.00;90.10;;;;;;5072695;28;20053;-69
2022/03/10 01:07:16;;;;;;;13.68;9.15;;;2.90;90.70;;;;;;5073135;28;20052;-68
2022/03/10 01:09:43;;;;;;;15.38;9.23;;;2.90;90.50;;;;;;5072391;28;20053;-69
2022/03/10 01:12:10;;;;;;;14.60;9.48;;;2.90;90.90;;;;;;5072977;28;20056;-69
2022/03/10 01:14:37;;;;;;;17.15;9.65;;;2.90;91.00;;;;;;5073842;28;20140;-70
2022/03/10 01:17:05;;;;;;;16.17;9.70;;;2.90;91.20;;;;;;5072170;28;20118;-69
2022/03/10 01:19:32;;;;;;;14.05;9.07;;;2.90;91.30;;;;;;5072876;28;20048;-70
2022/03/10 01:22:00;;;;;;;21.50;9.55;;;2.90;91.50;;;;;;5073758;28;20045;-69
2022/03/10 01:24:26;;;;;;;15.02;9.25;;;2.90;91.10;;;;;;5071664;28;20553;-68
2022/03/10 01:26:53;;;;;;;15.90;9.98;;;2.80;91.90;;;;;;5072639;28;20053;-68
2022/03/10 01:29:20;;;;;;;19.25;9.88;;;2.80;91.70;;;;;;5073874;28;20048;-69
2022/03/10 01:31:47;;;;;;;19.58;9.77;;;2.80;91.70;;;;;;5071110;28;20499;-69
2022/03/10 01:34:14;;;;;;;18.02;9.65;;;2.70;92.00;;;;;;5073420;28;20110;-69
2022/03/10 01:36:41;;;;;;;17.85;9.30;;;2.80;92.30;;;;;;5072566;28;20063;-69
2022/03/10 01:39:10;;;;;;;17.85;10.48;;;2.80;92.30;;;;;;5073097;28;20052;-68
2022/03/10 01:41:37;;;;;;;16.90;10.25;;;2.80;92.30;;;;;;5072445;28;20048;-68
2022/03/10 01:44:06;;;;;;;14.48;9.57;;;2.70;91.80;;;;;;5072087;28;20511;-69
2022/03/10 01:46:34;;;;;;;17.48;10.15;;;2.70;92.90;;;;;;5071796;28;20044;-69
2022/03/10 01:49:01;;;;;;;14.15;9.77;;;2.60;93.80;;;;;;5073765;28;20447;-68
2022/03/10 01:51:30;;;;;;;15.63;9.90;;;2.50;93.80;;;;;;5071474;28;20448;-69
2022/03/10 01:53:57;;;;;;;13.75;9.25;;;2.40;93.70;;;;;;5072322;28;20049;-69
2022/03/10 01:56:26;;;;;;;15.27;9.35;;;2.40;93.80;;;;;;5072095;28;20053;-68
2022/03/10 01:58:54;;;;;;;16.25;10.05;;;2.30;93.60;;;;;;5071526;28;20048;-68
2022/03/10 02:01:21;;;;;;;14.32;9.13;;;2.30;93.80;;;;;;5072117;28;20130;-67
2022/03/10 02:03:48;;;;;;;14.73;9.27;;;2.30;94.00;;;;;;5073125;28;20120;-68
2022/03/10 02:06:16;;;;;;;17.45;10.05;;;2.20;94.00;;;;;;5072275;28;20053;-68
2022/03/10 02:11:29;;;;;;;17.35;9.70;;;2.20;94.60;;;;;;5071816;28;20056;-68
2022/03/10 02:13:56;;;;;;;14.90;9.88;;;2.20;94.70;;;;;;5072470;28;20036;-68
2022/03/10 02:19:08;;;;;;;16.83;9.93;;;2.00;94.70;;;;;;5073350;28;20054;-68
2022/03/10 02:21:36;;;;;;;16.42;10.55;;;2.00;94.90;;;;;;5071347;28;20044;-68
2022/03/10 02:24:05;;;;;;;16.15;10.00;;;2.00;95.30;;;;;;5071579;28;20041;-68
2022/03/10 02:26:32;;;;;;;18.45;9.93;;;1.90;95.50;;;;;;5071164;28;20550;-69
2022/03/10 02:28:59;;;;;;;18.95;10.50;;;1.90;95.70;;;;;;5073070;28;20545;-70
2022/03/10 02:31:26;;;;;;;18.15;10.05;;;1.90;96.40;;;;;;5072777;28;20109;-68
2022/03/10 02:33:55;;;;;;;18.25;11.00;;;1.80;97.40;;;;;;5072115;28;20102;-69
2022/03/10 02:36:22;;;;;;;16.48;10.57;;;1.90;98.60;;;;;;5071679;28;20056;-70
2022/03/10 02:38:49;;;;;;;17.70;11.20;;;1.80;98.10;;;;;;5073073;28;20048;-68
2022/03/10 02:41:17;;;;;;;16.45;10.82;;;1.80;98.80;;;;;;5070970;28;20048;-69
2022/03/10 02:43:44;;;;;;;14.55;10.02;;;1.80;99.40;;;;;;5072310;28;20048;-68
2022/03/10 02:46:11;;;;;;;17.48;10.80;;;1.70;99.60;;;;;;5071447;28;20056;-69
2022/03/10 02:48:38;;;;;;;14.38;9.40;;;1.70;99.90;;;;;;5072190;28;20469;-69
2022/03/10 02:51:04;;;;;;;16.33;10.27;;;1.70;99.90;;;;;;5071809;28;20098;-69
2022/03/10 02:53:31;;;;;;;17.27;10.55;;;1.60;99.90;;;;;;5071594;28;20041;-68
2022/03/10 02:55:58;;;;;;;17.30;10.05;;;1.60;99.90;;;;;;5072194;28;20102;-69
2022/03/10 02:58:26;;;;;;;18.30;11.02;;;1.50;99.90;;;;;;5071896;28;20573;-68
2022/03/10 03:00:53;;;;;;;16.13;9.93;;;1.50;99.90;;;;;;5071617;28;20056;-68
2022/03/10 03:03:20;;;;;;;16.67;11.10;;;1.40;99.90;;;;;;5070365;28;20059;-68
2022/03/10 03:05:47;;;;;;;19.17;11.30;;;1.40;99.90;;;;;;5071516;28;20045;-68
2022/03/10 03:08:14;;;;;;;14.63;9.85;;;1.40;99.90;;;;;;5071673;28;20088;-68
2022/03/10 03:10:41;;;;;;;17.40;10.57;;;1.40;99.90;;;;;;5070653;28;20044;-68
2022/03/10 03:13:08;;;;;;;15.32;9.93;;;1.40;99.90;;;;;;5072132;28;20062;-69
2022/03/10 03:15:36;;;;;;;22.02;11.63;;;1.40;99.90;;;;;;5071670;28;20049;-68
2022/03/10 03:18:03;;;;;;;16.88;10.73;;;1.40;99.90;;;;;;5071224;28;20084;-68
2022/03/10 03:20:29;;;;;;;17.38;9.75;;;1.40;99.90;;;;;;5072371;28;20557;-68
2022/03/10 03:22:56;;;;;;;15.55;10.02;;;1.40;99.90;;;;;;5070330;28;20056;-68
2022/03/10 03:25:23;;;;;;;15.68;9.70;;;1.40;99.90;;;;;;5072071;28;20083;-68
2022/03/10 03:27:50;;;;;;;17.17;10.57;;;1.50;99.90;;;;;;5072227;28;20407;-68
2022/03/10 03:30:17;;;;;;;22.33;10.57;;;1.50;99.90;;;;;;5075253;28;20098;-68
2022/03/10 03:32:47;;;;;;;16.70;9.80;;;1.50;99.90;;;;;;5076075;28;20056;-68
2022/03/10 03:35:15;;;;;;;17.05;9.85;;;1.60;99.90;;;;;;5074700;28;20056;-69
2022/03/10 03:37:42;;;;;;;13.32;9.18;;;1.60;99.90;;;;;;5074084;28;20076;-68
2022/03/10 03:40:10;;;;;;;14.90;10.02;;;1.60;99.90;;;;;;5075050;28;20105;-68
2022/03/10 03:42:37;;;;;;;19.08;10.35;;;1.60;99.90;;;;;;5074549;28;20044;-68
2022/03/10 03:45:05;;;;;;;18.83;10.23;;;1.60;99.90;;;;;;5074552;28;20052;-68
2022/03/10 03:47:32;;;;;;;14.88;10.10;;;1.70;99.90;;;;;;5075625;28;20488;-69
2022/03/10 03:50:00;;;;;;;17.45;10.07;;;1.70;99.90;;;;;;5074625;28;20106;-69
2022/03/10 03:52:27;;;;;;;16.38;10.20;;;1.70;99.90;;;;;;5074952;28;20056;-68
2022/03/10 03:54:53;;;;;;;15.82;9.85;;;1.70;99.90;;;;;;5075826;28;20373;-68
2022/03/10 03:57:20;;;;;;;19.95;10.50;;;1.70;99.90;;;;;;5074620;28;20052;-69
2022/03/10 03:59:47;;;;;;;15.48;9.75;;;1.70;99.90;;;;;;5074848;28;20090;-68
2022/03/10 04:02:14;;;;;;;17.38;9.98;;;1.70;99.90;;;;;;5073954;28;20114;-68
2022/03/10 04:04:41;;;;;;;16.13;10.30;;;1.60;99.90;;;;;;5073468;28;20044;-68
2022/03/10 04:07:09;;;;;;;20.75;10.52;;;1.60;99.90;;;;;;5074758;28;20157;-68
2022/03/10 04:09:37;;;;;;;16.30;10.13;;;1.60;99.90;;;;;;5075502;28;20048;-68
2022/03/10 04:12:04;;;;;;;18.27;10.05;;;1.60;99.90;;;;;;5074762;28;20044;-68
2022/03/10 04:14:31;;;;;;;15.98;10.07;;;1.50;99.90;;;;;;5074976;28;20037;-68
2022/03/10 04:16:57;;;;;;;16.15;10.60;;;1.40;99.90;;;;;;5075208;28;20056;-67
2022/03/10 04:19:24;;;;;;;16.90;10.85;;;1.40;99.90;;;;;;5074620;28;20058;-68
2022/03/10 04:21:51;;;;;;;16.42;10.63;;;1.30;99.90;;;;;;5075101;28;20052;-68
2022/03/10 04:24:19;;;;;;;18.52;10.98;;;1.30;99.90;;;;;;5075026;28;20052;-68
2022/03/10 04:26:46;;;;;;;19.30;10.13;;;1.30;99.90;;;;;;5074515;28;20106;-69
2022/03/10 04:29:14;;;;;;;19.48;10.88;;;1.30;99.90;;;;;;5073565;28;20522;-68
2022/03/10 04:31:41;;;;;;;15.68;9.93;;;1.20;99.90;;;;;;5074135;28;20052;-68
2022/03/10 04:34:08;;;;;;;16.35;10.55;;;1.20;99.90;;;;;;5073823;28;20056;-69
2022/03/10 04:36:35;;;;;;;16.02;10.25;;;1.10;99.90;;;;;;5073559;28;20048;-67
2022/03/10 04:39:03;;;;;;;19.20;10.75;;;1.10;99.90;;;;;;5074819;28;20052;-68
2022/03/10 04:41:31;;;;;;;15.32;9.68;;;1.10;99.90;;;;;;5073918;28;20071;-68
2022/03/10 04:43:58;;;;;;;15.43;9.43;;;1.10;99.90;;;;;;5073078;28;20480;-68
2022/03/10 04:46:25;;;;;;;15.93;9.98;;;1.00;99.90;;;;;;5073352;28;20525;-68
2022/03/10 04:48:52;;;;;;;16.83;9.82;;;1.10;99.90;;;;;;5072937;28;20056;-68
2022/03/10 04:51:19;;;;;;;16.55;10.15;;;1.10;99.90;;;;;;5073507;28;20048;-68
2022/03/10 04:53:46;;;;;;;18.65;9.98;;;1.10;99.90;;;;;;5072905;28;20051;-68
2022/03/10 04:56:13;;;;;;;15.98;9.80;;;1.10;99.90;;;;;;5072659;28;20049;-68
2022/03/10 04:58:41;;;;;;;17.30;9.88;;;1.10;99.90;;;;;;5074272;28;20543;-68
2022/03/10 05:01:08;;;;;;;14.88;8.50;;;1.10;99.90;;;;;;5073761;28;20106;-68
2022/03/10 05:03:35;;;;;;;15.90;9.82;;;1.30;99.90;;;;;;5072788;28;20059;-69
2022/03/10 05:06:01;;;;;;;15.10;8.85;;;1.20;99.90;;;;;;5073182;28;20048;-66
2022/03/10 05:08:28;;;;;;;13.70;9.57;;;1.20;99.90;;;;;;5073888;28;20052;-66
2022/03/10 05:10:55;;;;;;;13.93;8.85;;;1.20;99.90;;;;;;5074501;28;20388;-67
2022/03/10 05:13:22;;;;;;;15.45;9.98;;;1.30;99.90;;;;;;5072381;28;20476;-66
2022/03/10 05:15:50;;;;;;;16.80;9.30;;;1.30;99.90;;;;;;5072902;28;20461;-66
2022/03/10 05:18:17;;;;;;;16.40;9.75;;;1.40;99.90;;;;;;5074211;28;20052;-67
2022/03/10 05:20:45;;;;;;;14.38;8.73;;;1.30;99.90;;;;;;5073876;28;20057;-67
2022/03/10 05:23:12;;;;;;;15.95;8.32;;;1.30;99.90;;;;;;5071976;28;20049;-66
2022/03/10 05:25:40;;;;;;;15.90;8.60;;;1.50;99.90;;;;;;5072206;28;20094;-66
2022/03/10 05:28:13;;;;;;;17.98;9.25;;;1.60;99.90;;;;;;5073167;28;20056;-66
2022/03/10 05:30:40;;;;;;;12.52;8.85;;;1.70;99.60;;;;;;5073100;28;20131;-67
2022/03/10 05:33:09;;;;;;;13.82;9.32;;;1.70;99.30;;;;;;5058382;28;20099;-65
2022/03/10 05:35:35;;;;;;;18.98;9.45;;;1.90;99.90;;;;;;5050244;28;20049;-66
2022/03/10 05:38:03;;;;;;;15.75;9.07;;;1.80;99.40;;;;;;5062456;28;20041;-66
2022/03/10 05:40:30;;;;;;;16.10;9.05;;;1.90;99.60;;;;;;5064683;28;20049;-66
2022/03/10 05:42:57;;;;;;;16.60;9.50;;;1.90;99.30;;;;;;5064230;28;20052;-65
2022/03/10 05:45:25;;;;;;;13.88;9.55;;;1.90;99.10;;;;;;5063799;28;20044;-65
2022/03/10 05:47:54;;;;;;;18.05;9.65;;;1.90;99.20;;;;;;5065010;28;20587;-66
2022/03/10 05:50:23;;;;;;;15.43;8.80;;;1.90;99.10;;;;;;5069276;28;20045;-67
2022/03/10 05:52:50;;;;;;;18.33;10.25;;;1.90;99.40;;;;;;5066020;28;20149;-66
2022/03/10 05:55:18;;;;;;;16.73;9.48;;;1.80;99.30;;;;;;5069426;28;20056;-66
2022/03/10 05:57:45;;;;;;;14.80;9.55;;;1.80;99.50;;;;;;5062499;28;20048;-65
2022/03/10 06:00:14;;;;;;;15.38;9.50;;;1.80;99.40;;;;;;5069519;28;20044;-66
2022/03/10 06:02:42;;;;;;;17.33;10.23;;;1.80;99.40;;;;;;5065084;28;20088;-66
2022/03/10 06:05:09;;;;;;;18.65;9.70;;;1.80;99.30;;;;;;5061636;28;20129;-66
2022/03/10 06:07:38;;;;;;;15.30;9.10;;;1.90;99.40;;;;;;5065601;28;20090;-66
2022/03/10 06:10:05;;;;;;;14.27;10.43;;;1.90;99.30;;;;;;5064037;28;20113;-66
2022/03/10 06:12:32;;;;;;;14.55;9.63;;;1.90;99.30;;;;;;5060829;28;20052;-66
2022/03/10 06:15:00;;;;;;;17.08;10.40;;;2.00;99.20;;;;;;5063994;28;20095;-66
2022/03/10 06:17:29;;;;;;;15.05;9.80;;;2.00;99.20;;;;;;5067446;28;20119;-67
2022/03/10 06:19:56;;;;;;;16.08;9.73;;;2.00;99.00;;;;;;5062331;28;20053;-67
2022/03/10 06:22:24;;;;;;;17.00;9.40;;;2.10;99.10;;;;;;5063565;28;20095;-67
2022/03/10 06:24:53;;;;;;;14.38;9.05;;;2.10;99.00;;;;;;5063112;28;20068;-66
2022/03/10 06:27:22;;;;;;;15.50;9.32;;;2.20;99.00;;;;;;5067306;28;20052;-67
2022/03/10 06:29:49;;;;;;;14.38;8.65;;;2.20;99.30;;;;;;5063353;28;20056;-66
2022/03/10 06:32:17;;;;;;;15.00;9.20;;;2.30;99.00;;;;;;5065498;28;20091;-66
2022/03/10 06:34:44;;;;;;;16.50;9.40;;;2.30;98.90;;;;;;5062723;28;20130;-66
2022/03/10 06:37:12;;;;;;;15.57;10.30;;;2.40;98.90;;;;;;5062951;28;20432;-65
2022/03/10 06:39:39;;;;;;;16.17;9.35;;;2.40;98.70;;;;;;5067004;28;20053;-66
2022/03/10 06:42:09;;;;;;;18.58;10.40;;;2.50;98.70;;;;;;5065304;28;20056;-66
2022/03/10 06:44:36;;;;;;;15.40;10.32;;;2.50;98.60;;;;;;5063787;28;20060;-66
2022/03/10 06:47:04;;;;;;;19.73;9.20;;;2.60;98.40;;;;;;5063435;28;20056;-66
2022/03/10 06:49:31;;;;;;;17.23;9.73;;;2.70;98.30;;;;;;5060734;28;20468;-66
2022/03/10 06:51:58;;;;;;;18.40;9.77;;;2.70;98.20;;;;;;5054565;28;20058;-66
2022/03/10 06:54:25;;;;;;;16.67;9.40;;;2.70;98.20;;;;;;5059826;28;20388;-66
2022/03/10 06:56:52;;;;;;;15.30;9.77;;;2.80;98.10;;;;;;5061609;28;20469;-66
2022/03/10 06:59:20;;;;;;;19.17;10.05;;;2.90;98.00;;;;;;5063860;28;20052;-65
2022/03/10 07:01:47;;;;;;;16.70;9.52;;;2.90;97.80;;;;;;5060851;28;20069;-65
2022/03/10 07:04:14;;;;;;;16.63;10.20;;;3.00;97.50;;;;;;5061983;28;20550;-65
2022/03/10 07:06:41;;;;;;;14.23;9.57;;;3.20;97.30;;;;;;5066024;28;20148;-66
2022/03/10 07:09:08;;;;;;;15.30;9.30;;;3.20;97.00;;;;;;5063206;28;20103;-66
2022/03/10 07:11:35;;;;;;;15.45;10.60;;;3.30;97.00;;;;;;5067259;28;20655;-66
2022/03/10 07:14:01;;;;;;;16.23;10.63;;;3.80;96.80;;;;;;5073795;28;20052;-66
2022/03/10 07:16:30;;;;;;;15.00;10.13;;;4.50;96.20;;;;;;5073153;28;20114;-67
2022/03/10 07:18:56;;;;;;;18.58;10.00;;;5.20;95.00;;;;;;5071970;28;20109;-66
2022/03/10 07:21:24;;;;;;;16.00;10.00;;;5.90;94.10;;;;;;5073204;28;20113;-66
2022/03/10 07:23:51;;;;;;;16.23;9.00;;;6.60;92.80;;;;;;5071151;28;20048;-66
2022/03/10 07:26:20;;;;;;;20.85;10.40;;;7.50;91.60;;;;;;5073056;28;20492;-67
2022/03/10 07:28:48;;;;;;;12.95;9.13;;;8.50;89.00;;;;;;5071787;28;20048;-67
2022/03/10 07:31:15;;;;;;;15.05;10.18;;;9.30;84.00;;;;;;5072520;28;20060;-67
2022/03/10 07:33:44;;;;;;;13.98;10.00;;;10.20;83.40;;;;;;5071698;28;20056;-67
2022/03/10 07:36:12;;;;;;;14.88;10.05;;;10.80;76.90;;;;;;5068847;28;20331;-67
2022/03/10 07:38:39;;;;;;;17.92;11.45;;;11.40;77.10;;;;;;5072426;28;20106;-68
2022/03/10 07:41:06;;;;;;;17.13;10.25;;;11.70;72.50;;;;;;5055954;28;20064;-67
2022/03/10 07:43:33;;;;;;;16.83;10.30;;;12.30;72.40;;;;;;5072126;28;20060;-67
2022/03/10 07:46:00;;;;;;;16.45;10.48;;;12.90;71.00;;;;;;5073877;28;21119;-68
2022/03/10 07:48:27;;;;;;;16.52;10.45;;;13.30;68.70;;;;;;5072694;28;20472;-67
2022/03/10 07:50:55;;;;;;;15.93;10.55;;;13.60;67.40;;;;;;5072773;28;20798;-68
2022/03/10 07:53:22;;;;;;;14.90;9.88;;;14.00;66.50;;;;;;5072394;28;20499;-68
2022/03/10 07:55:50;;;;;;;13.15;8.77;;;14.30;65.50;;;;;;5073729;28;20511;-68
2022/03/10 07:58:17;;;;;;;16.55;10.40;;;14.40;62.40;;;;;;5072673;28;20056;-68
2022/03/10 08:00:43;;;;;;;16.50;10.77;;;14.70;63.10;;;;;;5072755;28;20053;-68
2022/03/10 08:03:12;;;;;;;13.05;9.80;;;15.00;60.90;;;;;;5071675;28;20111;-68
2022/03/10 08:05:39;;;;;;;15.02;10.82;;;14.70;59.60;;;;;;5066242;28;20056;-67
2022/03/10 08:08:07;;;;;;;13.00;9.48;;;14.40;57.50;;;;;;5069410;28;20044;-67
2022/03/10 08:10:34;;;;;;;13.80;9.93;;;14.80;57.70;;;;;;5073761;28;20052;-67
2022/03/10 08:13:00;;;;;;;12.25;9.38;;;15.00;59.40;;;;;;5070800;28;20048;-67
2022/03/10 08:15:28;;;;;;;13.88;10.55;;;14.70;58.50;;;;;;5071242;28;20152;-67
2022/03/10 08:17:55;;;;;;;13.60;9.65;;;15.30;56.80;;;;;;5066554;28;20492;-68
2022/03/10 08:20:22;;;;;;;17.15;9.90;;;15.40;57.70;;;;;;5070232;28;20057;-68
2022/03/10 08:22:48;;;;;;;12.35;9.27;;;15.70;57.70;;;;;;5070767;28;20377;-68
2022/03/10 08:25:17;;;;;;;17.63;10.23;;;16.50;57.30;;;;;;5071525;28;20053;-67
2022/03/10 08:27:45;;;;;;;14.20;10.02;;;16.70;53.90;;;;;;5072717;28;20068;-68
2022/03/10 08:30:13;;;;;;;14.40;9.77;;;17.00;55.10;;;;;;5072919;28;20397;-68
2022/03/10 08:32:40;;;;;;;15.43;9.88;;;17.20;55.00;;;;;;5072059;28;20051;-68
2022/03/10 08:35:07;;;;;;;14.27;9.57;;;17.70;55.40;;;;;;5072953;28;20554;-67
2022/03/10 08:37:34;;;;;;;16.67;9.63;;;17.80;53.60;;;;;;5072454;28;20048;-67
2022/03/10 08:40:01;;;;;;;15.20;9.63;;;18.20;54.10;;;;;;5070716;28;20064;-69
2022/03/10 08:42:29;;;;;;;13.90;9.90;;;18.30;53.50;;;;;;5070365;28;20409;-68
2022/03/10 08:44:56;;;;;;;14.55;10.13;;;18.80;52.10;;;;;;5071129;28;20111;-69
2022/03/10 08:47:23;;;;;;;12.25;9.98;;;19.10;51.30;;;;;;5070493;28;20098;-68
2022/03/10 08:49:50;;;;;;;15.55;10.25;;;19.30;51.90;;;;;;5072336;28;20470;-68
2022/03/10 08:52:18;;;;;;;14.52;10.45;;;19.40;51.60;;;;;;5071614;28;20404;-68
2022/03/10 08:54:45;;;;;;;15.38;10.27;;;19.50;51.30;;;;;;5065365;28;20059;-68
2022/03/10 08:57:12;;;;;;;13.40;9.90;;;20.00;51.00;;;;;;5069423;28;20049;-68
2022/03/10 08:59:40;;;;;;;12.63;10.20;;;20.20;50.40;;;;;;5071124;28;21277;-68
2022/03/10 09:02:07;;;;;;;14.07;10.05;;;20.10;47.60;;;;;;5069517;28;20052;-68
2022/03/10 09:04:34;;;;;;;12.57;10.18;;;20.30;49.50;;;;;;5072637;28;20524;-68
2022/03/10 09:07:01;;;;;;;11.88;8.93;;;20.40;49.50;;;;;;5071385;28;20056;-68
2022/03/10 09:09:28;;;;;;;12.57;9.75;;;20.40;49.20;;;;;;5070875;28;20061;-69
2022/03/10 09:11:55;;;;;;;12.60;9.73;;;21.20;49.30;;;;;;5072089;28;20083;-69
2022/03/10 09:14:22;;;;;;;13.15;10.02;;;20.90;48.60;;;;;;5071526;28;20059;-69
2022/03/10 09:16:52;;;;;;;12.82;10.00;;;21.40;47.50;;;;;;5070832;28;20055;-68
2022/03/10 09:19:19;;;;;;;13.10;10.27;;;21.10;46.80;;;;;;5070340;28;20136;-69
2022/03/10 09:21:46;;;;;;;14.20;10.05;;;21.40;47.60;;;;;;5068764;28;20298;-68
2022/03/10 09:24:13;;;;;;;16.25;9.63;;;21.40;47.00;;;;;;5069654;28;20098;-68
2022/03/10 09:26:40;;;;;;;13.00;9.77;;;21.60;47.20;;;;;;5071034;28;20488;-69
2022/03/10 09:29:07;;;;;;;13.35;9.90;;;21.80;46.90;;;;;;5069780;28;20377;-67
2022/03/10 09:31:34;;;;;;;12.10;10.32;;;22.20;47.50;;;;;;5069985;28;20048;-68
2022/03/10 09:34:04;;;;;;;11.57;9.77;;;22.60;46.80;;;;;;5070400;28;20067;-68
2022/03/10 09:36:31;;;;;;;14.15;10.07;;;22.90;46.60;;;;;;5069661;28;20052;-68
2022/03/10 09:38:58;;;;;;;13.60;10.32;;;23.00;46.60;;;;;;5070137;28;20472;-68
2022/03/10 09:41:28;;;;;;;13.02;10.27;;;23.10;46.20;;;;;;5070386;28;20109;-69
2022/03/10 09:43:55;;;;;;;13.73;10.13;;;23.20;46.10;;;;;;5069744;28;20435;-69
2022/03/10 09:46:23;;;;;;;13.43;9.93;;;23.30;45.20;;;;;;5069915;28;20130;-68
2022/03/10 09:48:50;;;;;;;13.00;10.07;;;22.70;44.80;;;;;;5070167;28;20381;-68
2022/03/10 09:51:21;;;;;;;13.38;10.82;;;22.90;45.50;;;;;;5069395;28;20453;-68
2022/03/10 09:53:48;;;;;;;13.35;9.13;;;22.80;43.80;;;;;;5071231;28;20493;-68
2022/03/10 09:56:15;;;;;;;12.77;10.60;;;23.20;45.60;;;;;;5069730;28;20040;-68
2022/03/10 09:58:42;;;;;;;12.95;10.18;;;23.10;45.20;;;;;;5070650;28;20040;-68
2022/03/10 10:01:09;;;;;;;12.32;9.80;;;23.40;44.60;;;;;;5069457;28;20126;-68
2022/03/10 10:03:36;;;;;;;14.13;10.05;;;23.50;44.20;;;;;;5070572;28;20406;-68
2022/03/10 10:06:04;;;;;;;15.63;9.80;;;23.20;44.30;;;;;;5069338;28;20048;-68
2022/03/10 10:08:34;;;;;;;12.02;9.93;;;23.50;44.00;;;;;;5069766;28;20109;-69
2022/03/10 10:11:01;;;;;;;;;;;23.20;44.10;;;;;;5069203;28;20052;-67
2022/03/10 10:13:29;;;;;;;14.52;10.13;;;23.40;44.00;;;;;;5069734;28;19920;-68
2022/03/10 10:15:59;;;;;;;11.38;9.90;;;23.50;44.10;;;;;;5069214;28;20076;-68
2022/03/10 10:18:27;;;;;;;12.88;10.55;;;23.50;44.10;;;;;;5070556;28;20052;-68
2022/03/10 10:20:55;;;;;;;12.68;9.90;;;24.20;44.10;;;;;;5069136;28;20114;-68
2022/03/10 10:23:24;;;;;;;11.52;9.95;;;24.60;42.70;;;;;;5070718;28;20122;-69
2022/03/10 10:25:55;;;;;;;11.00;9.27;;;24.80;43.20;;;;;;5067858;28;20114;-68
2022/03/10 10:28:27;;;;;;;12.23;9.48;;;24.80;42.00;;;;;;5069549;28;20060;-68
2022/03/10 10:30:59;;;;;;;14.60;9.68;;;24.60;43.30;;;;;;5071103;28;20473;-69
2022/03/10 10:33:28;;;;;;;10.45;9.30;;;24.80;43.30;;;;;;5068405;28;20117;-68
2022/03/10 10:36:15;;;;;;;11.48;10.13;;;24.50;43.20;;;;;;5070009;28;20117;-68
2022/03/10 10:38:44;;;;;;;13.38;10.80;;;24.40;42.20;;;;;;5068977;28;20052;-69
2022/03/10 10:41:21;;;;;;;12.35;10.00;;;23.90;42.50;;;;;;5069166;28;20109;-68
2022/03/10 10:43:50;;;;;;;11.05;9.65;;;24.50;42.80;;;;;;5069689;28;20052;-69
2022/03/10 10:46:31;;;;;;;13.10;9.85;;;24.80;43.40;;;;;;5065919;28;20044;-69
2022/03/10 10:49:01;;;;;;;12.38;10.35;;;25.30;41.80;;;;;;5067736;28;20512;-68
2022/03/10 10:51:30;;;;;;;12.85;10.57;;;25.70;42.50;;;;;;5069639;28;20048;-68
2022/03/10 10:53:57;;;;;;;15.50;11.07;;;24.90;42.40;;;;;;5069910;28;20072;-68
2022/03/10 10:56:26;;;;;;;14.18;10.48;;;25.40;42.00;;;;;;5069489;28;20407;-69
2022/03/10 10:58:54;;;;;;;12.85;10.70;;;25.20;42.60;;;;;;5069593;28;20131;-68
2022/03/10 11:01:32;;;;;;;12.25;10.90;;;25.90;42.60;;;;;;5068348;28;20066;-68
2022/03/10 11:03:59;;;;;;;12.73;9.95;;;25.70;41.70;;;;;;5068148;28;20056;-68
2022/03/10 11:06:26;;;;;;;13.90;10.32;;;26.40;42.30;;;;;;5070430;28;20049;-68
2022/03/10 11:08:54;;;;;;;13.75;10.80;;;26.60;41.60;;;;;;5068126;28;20060;-69
2022/03/10 11:11:22;;;;;;;13.88;10.63;;;26.30;41.20;;;;;;5068769;28;20553;-69
2022/03/10 11:13:50;;;;;;;13.50;10.65;;;26.50;41.60;;;;;;5070356;28;20129;-68
2022/03/10 11:16:18;;;;;;;12.40;10.35;;;26.30;40.90;;;;;;5069436;28;20040;-68
2022/03/10 11:18:50;;;;;;;13.57;10.38;;;26.50;40.80;;;;;;5070401;28;20114;-70
2022/03/10 11:21:46;;;;;;;13.98;10.80;;;25.60;39.80;;;;;;5068391;28;20062;-69
2022/03/10 11:24:52;;;;;;;12.88;10.07;;;25.90;41.10;;;;;;5066258;28;20118;-69
2022/03/10 11:27:22;;;;;;;13.57;11.27;;;25.70;39.80;;;;;;5068520;28;20048;-69
2022/03/10 11:29:53;;;;;;;14.18;10.85;;;25.40;40.40;;;;;;5068813;28;20086;-68
2022/03/10 11:32:26;;;;;;;13.45;10.75;;;25.30;40.00;;;;;;5055581;28;20092;-69
2022/03/10 11:34:55;;;;;;;14.43;10.95;;;25.50;39.60;;;;;;5056295;28;20094;-69
2022/03/10 11:37:53;;;;;;;13.90;11.32;;;25.30;40.00;;;;;;5057878;28;20037;-69
2022/03/10 11:40:39;;;;;;;13.25;10.32;;;25.40;39.60;;;;;;5036566;28;20053;-68
2022/03/10 11:43:06;;;;;;;17.98;11.18;;;25.60;39.40;;;;;;5051322;28;20106;-69
2022/03/10 11:45:36;;;;;;;13.52;10.85;;;25.70;39.90;;;;;;5061318;28;20500;-69
2022/03/10 11:48:35;;;;;;;15.07;10.73;;;25.80;39.60;;;;;;5066130;28;20056;-69
2022/03/10 11:51:17;;;;;;;14.70;10.85;;;26.30;39.80;;;;;;5063918;28;20063;-69
2022/03/10 11:54:06;;;;;;;14.50;10.82;;;26.50;40.60;;;;;;5067310;28;20098;-69
2022/03/10 11:56:49;;;;;;;12.52;10.85;;;26.40;39.50;;;;;;5064215;28;20494;-69
2022/03/10 11:59:20;;;;;;;11.10;9.60;;;26.50;40.10;;;;;;5044029;28;20083;-69
2022/03/10 12:01:48;;;;;;;14.18;10.57;;;26.70;41.50;;;;;;5065542;28;20092;-69
2022/03/10 12:04:17;;;;;;;12.57;10.32;;;26.80;40.30;;;;;;5055142;28;20489;-67
2022/03/10 12:06:50;;;;;;;13.80;11.25;;;26.50;40.10;;;;;;5062990;28;20048;-69
2022/03/10 12:09:28;;;;;;;16.60;10.95;;;26.70;39.30;;;;;;5058654;28;20052;-67
2022/03/10 12:11:55;;;;;;;16.40;10.88;;;26.60;39.10;;;;;;5063682;28;20060;-68
2022/03/10 12:14:26;;;;;;;13.10;11.05;;;26.80;39.90;;;;;;5062533;28;20522;-69
2022/03/10 12:16:55;;;;;;;14.25;11.70;;;26.80;40.00;;;;;;5059302;28;20060;-69
2022/03/10 12:19:55;;;;;;;14.65;11.48;;;26.80;39.40;;;;;;5062659;28;20048;-68
2022/03/10 12:22:28;;;;;;;16.90;11.70;;;26.60;39.70;;;;;;5061974;28;20531;-69
2022/03/10 12:25:20;;;;;;;16.55;11.65;;;26.60;38.50;;;;;;5062745;28;20064;-69
2022/03/10 12:27:51;;;;;;;14.27;11.45;;;25.80;37.50;;;;;;5065125;28;20080;-69
2022/03/10 12:30:21;;;;;;;17.95;11.88;;;25.20;38.00;;;;;;5067665;28;20061;-69
2022/03/10 12:32:52;;;;;;;14.93;12.50;;;24.80;38.70;;;;;;5066545;28;20139;-69
2022/03/10 12:35:21;;;;;;;15.27;11.65;;;24.20;38.60;;;;;;5065232;28;20052;-69
2022/03/10 12:37:48;;;;;;;15.77;11.45;;;23.90;39.10;;;;;;5068684;28;20044;-69
2022/03/10 12:40:19;;;;;;;15.57;11.57;;;23.40;39.40;;;;;;5065808;28;20048;-68
2022/03/10 12:42:47;;;;;;;14.45;11.30;;;22.80;40.00;;;;;;5066107;28;20114;-69
2022/03/10 12:45:19;;;;;;;14.85;10.93;;;21.90;39.80;;;;;;5068832;28;20064;-69
2022/03/10 12:47:49;;;;;;;14.35;11.02;;;21.40;40.50;;;;;;5069653;28;20048;-68
2022/03/10 12:50:17;;;;;;;;;;;21.50;40.80;;;;;;5070009;28;20084;-68